createdAt,value
2023-05-05T00:00:53.726Z,97.46
2023-05-05T00:05:51.746Z,96.38
2023-05-05T00:10:49.732Z,97.26
2023-05-05T00:15:47.240Z,96.20
2023-05-05T00:20:46.636Z,95.92
2023-05-05T00:25:45.953Z,96.62
2023-05-05T00:30:42.777Z,96.84
2023-05-05T00:35:40.115Z,96.13
2023-05-05T00:40:38.703Z,95.49
2023-05-05T00:45:36.902Z,95.82
2023-05-05T00:50:34.860Z,95.55
2023-05-05T00:55:31.847Z,96.23
2023-05-05T01:00:29.800Z,94.48
2023-05-05T01:05:33.165Z,93.94
2023-05-05T01:10:32.650Z,93.75
2023-05-05T01:15:33.371Z,91.63
2023-05-05T01:20:33.055Z,92.26
2023-05-05T01:25:46.729Z,91.55
2023-05-05T01:31:01.531Z,90.93
2023-05-05T01:36:03.211Z,91.82
2023-05-05T01:41:04.062Z,92.88
2023-05-05T01:46:02.529Z,92.16
2023-05-05T01:51:01.303Z,91.30
2023-05-05T01:55:58.370Z,91.76
2023-05-05T02:00:57.064Z,91.88
2023-05-05T02:05:54.319Z,92.70
2023-05-05T02:10:52.782Z,91.92
2023-05-05T02:15:50.273Z,92.61
2023-05-05T02:20:46.928Z,90.39
2023-05-05T02:25:45.908Z,92.23
2023-05-05T02:30:43.788Z,92.18
2023-05-05T02:35:40.936Z,92.20
2023-05-05T02:40:43.215Z,91.64
2023-05-05T02:45:45.208Z,90.69
2023-05-05T02:50:42.998Z,92.00
2023-05-05T02:56:06.359Z,91.07
2023-05-05T03:01:11.576Z,91.49
2023-05-05T03:06:13.203Z,92.53
2023-05-05T03:11:16.093Z,93.27
2023-05-05T03:16:15.325Z,93.81
2023-05-05T03:21:14.756Z,94.97
2023-05-05T03:26:16.448Z,95.01
2023-05-05T03:31:13.286Z,93.19
2023-05-05T03:36:10.663Z,92.64
2023-05-05T03:41:07.816Z,93.12
2023-05-05T03:46:04.829Z,91.70
2023-05-05T03:51:02.064Z,91.55
2023-05-05T03:56:02.307Z,92.03
2023-05-05T04:00:59.296Z,94.52
2023-05-05T04:05:55.974Z,93.64
2023-05-05T04:10:52.893Z,93.70
2023-05-05T04:15:51.037Z,92.93
2023-05-05T04:20:48.525Z,92.06
2023-05-05T04:25:46.648Z,92.48
2023-05-05T04:30:43.293Z,91.59
2023-05-05T04:35:40.955Z,90.65
2023-05-05T04:40:38.828Z,92.38
2023-05-05T04:45:36.276Z,93.76
2023-05-05T04:50:32.928Z,93.85
2023-05-05T04:55:30.489Z,94.71
2023-05-05T05:00:27.764Z,94.15
2023-05-05T05:05:24.470Z,94.01
2023-05-05T05:10:27.169Z,93.65
2023-05-05T05:15:26.037Z,93.03
2023-05-05T05:20:23.661Z,92.93
2023-05-05T05:25:20.839Z,91.66
2023-05-05T05:30:18.796Z,92.22
2023-05-05T05:35:16.482Z,91.79
2023-05-05T05:40:14.047Z,92.80
2023-05-05T05:45:11.432Z,93.18
2023-05-05T05:50:11.191Z,94.05
2023-05-05T05:55:09.527Z,92.99
2023-05-05T06:00:08.488Z,92.22
2023-05-05T06:05:17.327Z,90.84
2023-05-05T06:10:27.602Z,91.22
2023-05-05T06:15:31.134Z,91.19
2023-05-05T06:20:29.702Z,90.01
2023-05-05T06:25:29.415Z,90.46
2023-05-05T06:30:26.171Z,91.62
2023-05-05T06:35:27.770Z,92.52
2023-05-05T06:40:27.624Z,91.60
2023-05-05T06:45:30.184Z,91.78
2023-05-05T06:50:28.748Z,91.37
2023-05-05T06:55:25.648Z,92.94
2023-05-05T07:00:22.911Z,92.32
2023-05-05T07:05:20.475Z,91.89
2023-05-05T07:10:17.775Z,90.42
2023-05-05T07:15:26.765Z,91.11
2023-05-05T07:20:29.910Z,90.39
2023-05-05T07:25:26.767Z,92.04
2023-05-05T07:30:26.781Z,90.58
2023-05-05T07:35:23.952Z,89.98
2023-05-05T07:40:21.406Z,87.33
2023-05-05T07:45:20.640Z,87.75
2023-05-05T07:50:18.090Z,86.55
2023-05-05T07:55:16.221Z,86.58
2023-05-05T08:00:14.631Z,86.98
2023-05-05T08:05:13.276Z,86.86
2023-05-05T08:10:10.730Z,86.76
2023-05-05T08:15:08.395Z,85.37
2023-05-05T08:20:07.654Z,84.45
2023-05-05T08:25:08.380Z,83.84
2023-05-05T08:30:09.072Z,84.06
2023-05-05T08:35:14.599Z,84.52
2023-05-05T08:40:14.957Z,85.03
2023-05-05T08:45:12.156Z,85.37
2023-05-05T08:50:10.913Z,83.97
2023-05-05T08:55:13.321Z,84.08
2023-05-05T09:00:10.986Z,84.86
2023-05-05T09:05:08.365Z,83.68
2023-05-05T09:10:08.067Z,83.27
2023-05-05T09:15:05.488Z,82.90
2023-05-05T09:20:04.303Z,82.27
2023-05-05T09:25:01.099Z,80.41
2023-05-05T09:29:58.801Z,79.25
2023-05-05T09:35:01.523Z,81.04
2023-05-05T09:40:00.433Z,81.57
2023-05-05T09:44:59.603Z,80.84
2023-05-05T09:49:58.421Z,80.75
2023-05-05T09:54:55.955Z,83.42
2023-05-05T10:00:02.731Z,83.05
2023-05-05T10:05:12.733Z,82.57
2023-05-05T10:10:11.246Z,82.44
2023-05-05T10:15:09.166Z,83.40
2023-05-05T10:20:08.020Z,83.24
2023-05-05T10:25:10.373Z,80.93
2023-05-05T10:30:08.613Z,81.57
2023-05-05T10:35:11.579Z,80.27
2023-05-05T10:40:20.601Z,80.44
2023-05-05T10:45:19.906Z,80.56
2023-05-05T10:50:23.631Z,78.40
2023-05-05T10:55:24.559Z,78.15
2023-05-05T11:00:39.897Z,75.39
2023-05-05T11:05:36.958Z,76.31
2023-05-05T11:10:55.170Z,75.72
2023-05-05T11:15:56.346Z,73.56
2023-05-05T11:21:08.539Z,73.85
2023-05-05T11:26:08.678Z,72.53
2023-05-05T11:31:18.770Z,72.61
2023-05-05T11:36:16.179Z,70.60
2023-05-05T11:41:17.312Z,71.51
2023-05-05T11:46:15.673Z,70.05
2023-05-05T11:51:15.894Z,70.65
2023-05-05T11:56:18.493Z,69.70
2023-05-05T12:01:15.698Z,69.38
2023-05-05T12:06:12.879Z,69.14
2023-05-05T12:11:13.115Z,67.96
2023-05-05T12:16:10.059Z,67.60
2023-05-05T12:21:13.785Z,69.35
2023-05-05T12:26:30.200Z,68.82
2023-05-05T12:31:37.111Z,68.22
2023-05-05T12:36:45.382Z,68.86
2023-05-05T12:42:05.351Z,69.72
2023-05-05T12:47:02.297Z,69.71
2023-05-05T12:51:59.684Z,69.23
2023-05-05T12:56:58.074Z,69.15
2023-05-05T13:01:55.835Z,68.97
2023-05-05T13:07:08.601Z,68.30
2023-05-05T13:12:10.835Z,66.99
2023-05-05T13:17:08.327Z,66.65
2023-05-05T13:22:05.305Z,64.17
2023-05-05T13:27:02.881Z,65.38
2023-05-05T13:32:00.403Z,64.71
2023-05-05T13:36:57.265Z,64.73
2023-05-05T13:41:53.877Z,61.08
2023-05-05T13:46:50.636Z,61.52
2023-05-05T13:51:48.196Z,61.66
2023-05-05T13:56:45.056Z,61.74
2023-05-05T14:01:42.038Z,60.13
2023-05-05T14:06:40.501Z,60.18
2023-05-05T14:11:37.848Z,60.40
2023-05-05T14:16:34.811Z,60.88
2023-05-05T14:21:31.971Z,58.71
2023-05-05T14:26:28.629Z,59.89
2023-05-05T14:31:25.981Z,60.83
2023-05-05T14:36:22.977Z,58.73
2023-05-05T14:41:21.734Z,60.53
2023-05-05T14:46:18.721Z,58.65
2023-05-05T14:51:16.297Z,58.63
2023-05-05T14:56:13.060Z,60.46
2023-05-05T15:01:09.817Z,59.93
2023-05-05T15:06:09.456Z,59.47
2023-05-05T15:11:06.832Z,59.95
2023-05-05T15:16:05.917Z,59.88
2023-05-05T15:21:02.551Z,60.28
2023-05-05T15:25:59.099Z,60.24
2023-05-05T15:30:56.696Z,60.47
2023-05-05T15:35:53.413Z,60.08
2023-05-05T15:40:50.369Z,60.26
2023-05-05T15:45:47.064Z,60.28
2023-05-05T15:50:44.391Z,60.85
2023-05-05T15:55:42.229Z,61.23
2023-05-05T16:00:39.149Z,62.20
2023-05-05T16:05:36.072Z,62.46
2023-05-05T16:10:34.462Z,63.78
2023-05-05T16:15:35.925Z,63.45
2023-05-05T16:20:32.791Z,63.59
2023-05-05T16:25:29.505Z,65.27
2023-05-05T16:30:26.757Z,64.78
2023-05-05T16:35:23.415Z,65.41
2023-05-05T16:40:20.054Z,65.35
2023-05-05T16:45:16.676Z,65.67
2023-05-05T16:50:14.038Z,66.19
2023-05-05T16:55:11.118Z,66.52
2023-05-05T17:00:08.940Z,67.45
2023-05-05T17:05:06.020Z,67.16
2023-05-05T17:10:03.582Z,68.54
2023-05-05T17:15:00.431Z,69.39
2023-05-05T17:19:57.253Z,69.72
2023-05-05T17:24:53.909Z,70.43
2023-05-05T17:29:51.202Z,70.73
2023-05-05T17:34:48.021Z,70.59
2023-05-05T17:39:44.606Z,70.09
2023-05-05T17:44:44.070Z,69.21
2023-05-05T17:49:42.228Z,68.28
2023-05-05T17:54:38.854Z,67.86
2023-05-05T17:59:35.636Z,67.95
2023-05-05T18:04:32.281Z,68.08
2023-05-05T18:09:30.492Z,68.09
2023-05-05T18:14:27.222Z,68.54
2023-05-05T18:19:23.892Z,69.28
2023-05-05T18:24:20.844Z,69.49
2023-05-05T18:29:18.363Z,69.96
2023-05-05T18:34:16.221Z,70.35
2023-05-05T18:39:12.904Z,70.84
2023-05-05T18:44:10.116Z,71.21
2023-05-05T18:49:07.750Z,72.60
2023-05-05T18:54:04.383Z,72.81
2023-05-05T18:59:00.988Z,73.32
2023-05-05T19:03:57.623Z,72.71
2023-05-05T19:08:56.068Z,72.58
2023-05-05T19:13:53.740Z,72.62
2023-05-05T19:18:50.350Z,72.15
2023-05-05T19:23:46.816Z,71.77
2023-05-05T19:28:44.204Z,72.93
2023-05-05T19:33:44.515Z,73.48
2023-05-05T19:38:43.871Z,73.78
2023-05-05T19:43:40.522Z,74.70
2023-05-05T19:48:37.757Z,75.36
2023-05-05T19:53:34.398Z,74.36
2023-05-05T19:58:33.601Z,74.08
2023-05-05T20:03:30.604Z,74.19
2023-05-05T20:08:27.886Z,73.80
2023-05-05T20:13:24.651Z,74.54
2023-05-05T20:18:21.314Z,73.98
2023-05-05T20:23:17.832Z,74.75
2023-05-05T20:28:15.173Z,73.91
2023-05-05T20:33:12.131Z,75.68
2023-05-05T20:38:09.114Z,75.12
2023-05-05T20:43:05.757Z,75.10
2023-05-05T20:48:03.509Z,75.15
2023-05-05T20:53:00.094Z,75.56
2023-05-05T20:57:56.749Z,75.21
2023-05-05T21:02:53.426Z,76.54
2023-05-05T21:07:53.312Z,77.05
2023-05-05T21:12:50.115Z,76.84
2023-05-05T21:17:47.175Z,76.90
2023-05-05T21:22:43.933Z,76.79
2023-05-05T21:27:41.659Z,77.34
2023-05-05T21:32:38.260Z,77.09
2023-05-05T21:37:36.468Z,76.20
2023-05-05T21:42:34.478Z,76.02
2023-05-05T21:47:31.855Z,76.12
2023-05-05T21:52:28.631Z,76.04
2023-05-05T21:57:25.233Z,76.98
2023-05-05T22:02:21.967Z,75.84
2023-05-05T22:07:19.381Z,75.59
2023-05-05T22:12:17.910Z,76.70
2023-05-05T22:17:14.585Z,76.31
2023-05-05T22:22:11.437Z,76.72
2023-05-05T22:27:10.996Z,75.75
2023-05-05T22:32:07.544Z,75.28
2023-05-05T22:37:06.851Z,75.99
2023-05-05T22:42:03.494Z,75.71
2023-05-05T22:47:03.121Z,75.33
2023-05-05T22:51:59.752Z,75.39
2023-05-05T22:56:56.404Z,75.55
2023-05-05T23:01:52.890Z,74.58
2023-05-05T23:06:50.144Z,74.41
2023-05-05T23:11:46.752Z,73.77
2023-05-05T23:16:43.401Z,75.21
2023-05-05T23:21:52.083Z,75.29
2023-05-05T23:26:51.456Z,75.39
2023-05-05T23:31:48.071Z,75.56
2023-05-05T23:36:44.896Z,76.44
2023-05-05T23:41:41.416Z,77.28
2023-05-05T23:46:38.675Z,78.10
2023-05-05T23:51:35.272Z,78.34
2023-05-05T23:56:31.881Z,78.56
